Holly Grove, Arkansas
Current Conditions -  °F | °C
As of 11:55 AM on Friday 21 Nov 2014 (Local Time) from KSGT Reporting Station
Overcast Overcast  
Wind Chill: 44°   Ceiling: 3800
Heat Index: 48°   Visibility: 5mi
Dew Point: 45°   Wind: 10mph
Humidity: 87%   Direction: 50°NE
Pressure: 30.29"   Gusts: NA
Location:  34.6°N, 91.2°W
Report Text: KSGT 211755Z AUTO 05009KT 5SM OVC038 09/07 A3029 RMK AO1 P0001 60002 10090 20060 57010
Loading
Personal Weather Stations






























Interactive Weather Map New forecast layout! Learn more

10-Day Weather Forecast

Advertisements
Track Severe Weather on mobile